sensor_id;sensor_type;location;lat;lon;timestamp;temperature;humidity
9772;DHT22;4925;52.588;13.370;2023-09-19T00:00:25;19.70;99.90
9772;DHT22;4925;52.588;13.370;2023-09-19T00:02:57;19.70;99.90
9772;DHT22;4925;52.588;13.370;2023-09-19T00:05:29;19.70;99.90
9772;DHT22;4925;52.588;13.370;2023-09-19T00:07:57;19.70;99.90
9772;DHT22;4925;52.588;13.370;2023-09-19T00:10:29;19.60;99.90
9772;DHT22;4925;52.588;13.370;2023-09-19T00:13:01;19.60;99.90
9772;DHT22;4925;52.588;13.370;2023-09-19T00:15:36;19.60;99.90
9772;DHT22;4925;52.588;13.370;2023-09-19T00:18:03;19.50;99.90
9772;DHT22;4925;52.588;13.370;2023-09-19T00:20:32;19.50;99.90
9772;DHT22;4925;52.588;13.370;2023-09-19T00:22:57;19.50;99.90
9772;DHT22;4925;52.588;13.370;2023-09-19T00:25:30;19.40;99.90
9772;DHT22;4925;52.588;13.370;2023-09-19T00:28:00;19.40;99.90
9772;DHT22;4925;52.588;13.370;2023-09-19T00:30:27;19.50;99.90
9772;DHT22;4925;52.588;13.370;2023-09-19T00:32:52;19.40;99.90
9772;DHT22;4925;52.588;13.370;2023-09-19T00:35:19;19.40;99.90
9772;DHT22;4925;52.588;13.370;2023-09-19T00:37:45;19.40;99.90
9772;DHT22;4925;52.588;13.370;2023-09-19T00:40:11;19.40;99.90
9772;DHT22;4925;52.588;13.370;2023-09-19T00:42:41;19.40;99.90
9772;DHT22;4925;52.588;13.370;2023-09-19T00:45:11;19.40;99.90
9772;DHT22;4925;52.588;13.370;2023-09-19T00:47:49;19.50;99.90
9772;DHT22;4925;52.588;13.370;2023-09-19T00:50:19;19.40;99.90
9772;DHT22;4925;52.588;13.370;2023-09-19T00:52:49;19.40;99.90
9772;DHT22;4925;52.588;13.370;2023-09-19T00:55:16;19.50;99.90
9772;DHT22;4925;52.588;13.370;2023-09-19T00:57:41;19.40;99.90
9772;DHT22;4925;52.588;13.370;2023-09-19T01:00:10;19.50;99.90
9772;DHT22;4925;52.588;13.370;2023-09-19T01:02:42;19.40;99.90
9772;DHT22;4925;52.588;13.370;2023-09-19T01:05:09;19.50;99.90
9772;DHT22;4925;52.588;13.370;2023-09-19T01:07:35;19.40;99.90
9772;DHT22;4925;52.588;13.370;2023-09-19T01:10:06;19.40;99.90
9772;DHT22;4925;52.588;13.370;2023-09-19T01:13:13;19.40;99.90
9772;DHT22;4925;52.588;13.370;2023-09-19T01:15:55;19.40;99.90
9772;DHT22;4925;52.588;13.370;2023-09-19T01:18:52;19.40;99.90
9772;DHT22;4925;52.588;13.370;2023-09-19T01:29:52;19.50;99.90
9772;DHT22;4925;52.588;13.370;2023-09-19T01:32:21;19.50;99.90
9772;DHT22;4925;52.588;13.370;2023-09-19T01:34:55;19.50;99.90
9772;DHT22;4925;52.588;13.370;2023-09-19T01:37:29;19.40;99.90
9772;DHT22;4925;52.588;13.370;2023-09-19T01:40:04;19.40;99.90
9772;DHT22;4925;52.588;13.370;2023-09-19T01:43:19;19.50;99.90
9772;DHT22;4925;52.588;13.370;2023-09-19T01:48:46;19.60;99.90
9772;DHT22;4925;52.588;13.370;2023-09-19T01:51:22;19.60;99.90
9772;DHT22;4925;52.588;13.370;2023-09-19T01:54:04;19.60;99.90
9772;DHT22;4925;52.588;13.370;2023-09-19T01:56:38;19.70;99.90
9772;DHT22;4925;52.588;13.370;2023-09-19T01:59:25;19.70;99.90
9772;DHT22;4925;52.588;13.370;2023-09-19T02:01:54;19.60;99.90
9772;DHT22;4925;52.588;13.370;2023-09-19T02:04:20;19.70;99.90
9772;DHT22;4925;52.588;13.370;2023-09-19T02:06:46;19.80;99.90
9772;DHT22;4925;52.588;13.370;2023-09-19T02:09:13;19.80;99.90
9772;DHT22;4925;52.588;13.370;2023-09-19T02:11:45;19.80;99.90
9772;DHT22;4925;52.588;13.370;2023-09-19T02:14:11;19.80;99.90
9772;DHT22;4925;52.588;13.370;2023-09-19T02:16:40;19.90;99.90
9772;DHT22;4925;52.588;13.370;2023-09-19T02:19:07;19.70;99.90
9772;DHT22;4925;52.588;13.370;2023-09-19T02:21:35;19.70;99.90
9772;DHT22;4925;52.588;13.370;2023-09-19T02:24:01;19.70;99.90
9772;DHT22;4925;52.588;13.370;2023-09-19T02:26:28;19.70;99.90
9772;DHT22;4925;52.588;13.370;2023-09-19T02:28:57;19.80;99.90
9772;DHT22;4925;52.588;13.370;2023-09-19T02:31:24;19.80;99.90
9772;DHT22;4925;52.588;13.370;2023-09-19T02:33:54;19.80;99.90
9772;DHT22;4925;52.588;13.370;2023-09-19T02:36:20;19.70;99.90
9772;DHT22;4925;52.588;13.370;2023-09-19T02:38:46;19.70;99.90
9772;DHT22;4925;52.588;13.370;2023-09-19T02:41:16;19.70;99.90
9772;DHT22;4925;52.588;13.370;2023-09-19T02:43:41;19.70;99.90
9772;DHT22;4925;52.588;13.370;2023-09-19T02:46:08;19.70;99.90
9772;DHT22;4925;52.588;13.370;2023-09-19T02:48:34;19.70;99.90
9772;DHT22;4925;52.588;13.370;2023-09-19T02:51:04;19.60;99.90
9772;DHT22;4925;52.588;13.370;2023-09-19T02:53:30;19.70;99.90
9772;DHT22;4925;52.588;13.370;2023-09-19T02:55:59;19.60;99.90
9772;DHT22;4925;52.588;13.370;2023-09-19T02:58:26;19.60;99.90
9772;DHT22;4925;52.588;13.370;2023-09-19T03:00:55;19.60;99.90
9772;DHT22;4925;52.588;13.370;2023-09-19T03:03:23;19.50;99.90
9772;DHT22;4925;52.588;13.370;2023-09-19T03:05:48;19.50;99.90
9772;DHT22;4925;52.588;13.370;2023-09-19T03:08:16;19.40;99.90
9772;DHT22;4925;52.588;13.370;2023-09-19T03:10:42;19.50;99.90
9772;DHT22;4925;52.588;13.370;2023-09-19T03:13:09;19.50;99.90
9772;DHT22;4925;52.588;13.370;2023-09-19T03:15:36;19.30;99.90
9772;DHT22;4925;52.588;13.370;2023-09-19T03:18:04;19.30;99.90
9772;DHT22;4925;52.588;13.370;2023-09-19T03:20:31;19.30;99.90
9772;DHT22;4925;52.588;13.370;2023-09-19T03:22:57;19.30;99.90
9772;DHT22;4925;52.588;13.370;2023-09-19T03:25:22;19.20;99.90
9772;DHT22;4925;52.588;13.370;2023-09-19T03:27:48;19.10;99.90
9772;DHT22;4925;52.588;13.370;2023-09-19T03:30:15;19.10;99.90
9772;DHT22;4925;52.588;13.370;2023-09-19T03:32:45;19.00;99.90
9772;DHT22;4925;52.588;13.370;2023-09-19T03:35:12;18.80;99.90
9772;DHT22;4925;52.588;13.370;2023-09-19T03:37:40;18.80;99.90
9772;DHT22;4925;52.588;13.370;2023-09-19T03:40:07;18.70;99.90
9772;DHT22;4925;52.588;13.370;2023-09-19T03:42:33;18.60;99.90
9772;DHT22;4925;52.588;13.370;2023-09-19T03:45:02;18.60;99.90
9772;DHT22;4925;52.588;13.370;2023-09-19T03:47:28;18.60;99.90
9772;DHT22;4925;52.588;13.370;2023-09-19T03:49:54;18.50;99.90
9772;DHT22;4925;52.588;13.370;2023-09-19T03:52:20;18.50;99.90
9772;DHT22;4925;52.588;13.370;2023-09-19T03:54:45;18.50;99.90
9772;DHT22;4925;52.588;13.370;2023-09-19T03:57:11;18.50;99.90
9772;DHT22;4925;52.588;13.370;2023-09-19T03:59:41;18.40;99.90
9772;DHT22;4925;52.588;13.370;2023-09-19T04:02:08;18.40;99.90
9772;DHT22;4925;52.588;13.370;2023-09-19T04:04:39;18.40;99.90
9772;DHT22;4925;52.588;13.370;2023-09-19T04:07:05;18.40;99.90
9772;DHT22;4925;52.588;13.370;2023-09-19T04:09:33;18.40;99.90
9772;DHT22;4925;52.588;13.370;2023-09-19T04:12:00;18.40;99.90
9772;DHT22;4925;52.588;13.370;2023-09-19T04:14:25;18.40;99.90
9772;DHT22;4925;52.588;13.370;2023-09-19T04:16:52;18.30;99.90
9772;DHT22;4925;52.588;13.370;2023-09-19T04:19:18;18.20;99.90
9772;DHT22;4925;52.588;13.370;2023-09-19T04:21:44;18.20;99.90
9772;DHT22;4925;52.588;13.370;2023-09-19T04:24:10;18.10;99.90
9772;DHT22;4925;52.588;13.370;2023-09-19T04:26:35;18.20;99.90
9772;DHT22;4925;52.588;13.370;2023-09-19T04:29:02;18.20;99.90
9772;DHT22;4925;52.588;13.370;2023-09-19T04:31:29;18.10;99.90
9772;DHT22;4925;52.588;13.370;2023-09-19T04:33:55;18.10;99.90
9772;DHT22;4925;52.588;13.370;2023-09-19T04:36:20;18.00;99.90
9772;DHT22;4925;52.588;13.370;2023-09-19T04:38:48;18.00;99.90
9772;DHT22;4925;52.588;13.370;2023-09-19T04:41:15;18.00;99.90
9772;DHT22;4925;52.588;13.370;2023-09-19T04:43:41;18.00;99.90
9772;DHT22;4925;52.588;13.370;2023-09-19T04:46:06;18.00;99.90
9772;DHT22;4925;52.588;13.370;2023-09-19T04:48:32;18.00;99.90
9772;DHT22;4925;52.588;13.370;2023-09-19T04:51:00;17.90;99.90
9772;DHT22;4925;52.588;13.370;2023-09-19T04:53:26;17.90;99.90
9772;DHT22;4925;52.588;13.370;2023-09-19T04:55:53;17.90;99.90
9772;DHT22;4925;52.588;13.370;2023-09-19T04:58:21;17.80;99.90
9772;DHT22;4925;52.588;13.370;2023-09-19T05:00:47;17.80;99.90
9772;DHT22;4925;52.588;13.370;2023-09-19T05:03:12;17.80;99.90
9772;DHT22;4925;52.588;13.370;2023-09-19T05:05:38;17.80;99.90
9772;DHT22;4925;52.588;13.370;2023-09-19T05:08:06;17.90;99.90
9772;DHT22;4925;52.588;13.370;2023-09-19T05:10:34;17.90;99.90
9772;DHT22;4925;52.588;13.370;2023-09-19T05:13:24;17.80;99.90
9772;DHT22;4925;52.588;13.370;2023-09-19T05:16:00;17.80;99.90
9772;DHT22;4925;52.588;13.370;2023-09-19T05:18:27;17.80;99.90
9772;DHT22;4925;52.588;13.370;2023-09-19T05:20:53;17.80;99.90
9772;DHT22;4925;52.588;13.370;2023-09-19T05:23:20;17.80;99.90
9772;DHT22;4925;52.588;13.370;2023-09-19T05:25:46;17.70;99.90
9772;DHT22;4925;52.588;13.370;2023-09-19T05:28:12;17.70;99.90
9772;DHT22;4925;52.588;13.370;2023-09-19T05:30:41;17.70;99.90
9772;DHT22;4925;52.588;13.370;2023-09-19T05:33:08;17.70;99.90
9772;DHT22;4925;52.588;13.370;2023-09-19T05:35:35;17.70;99.90
9772;DHT22;4925;52.588;13.370;2023-09-19T05:38:05;17.70;99.90
9772;DHT22;4925;52.588;13.370;2023-09-19T05:40:38;17.70;99.90
9772;DHT22;4925;52.588;13.370;2023-09-19T05:43:07;17.70;99.90
9772;DHT22;4925;52.588;13.370;2023-09-19T05:45:33;17.70;99.90
9772;DHT22;4925;52.588;13.370;2023-09-19T05:48:08;17.70;99.90
9772;DHT22;4925;52.588;13.370;2023-09-19T05:50:34;17.70;99.90
9772;DHT22;4925;52.588;13.370;2023-09-19T05:53:00;17.70;99.90
9772;DHT22;4925;52.588;13.370;2023-09-19T05:55:26;17.70;99.90
9772;DHT22;4925;52.588;13.370;2023-09-19T05:57:54;17.60;99.90
9772;DHT22;4925;52.588;13.370;2023-09-19T06:00:20;17.60;99.90
9772;DHT22;4925;52.588;13.370;2023-09-19T06:02:50;17.60;99.90
9772;DHT22;4925;52.588;13.370;2023-09-19T06:05:16;17.70;99.90
9772;DHT22;4925;52.588;13.370;2023-09-19T06:07:42;17.80;99.90
9772;DHT22;4925;52.588;13.370;2023-09-19T06:10:10;17.70;99.90
9772;DHT22;4925;52.588;13.370;2023-09-19T06:12:56;17.80;99.90
9772;DHT22;4925;52.588;13.370;2023-09-19T06:15:24;17.80;99.90
9772;DHT22;4925;52.588;13.370;2023-09-19T06:17:52;17.90;99.90
9772;DHT22;4925;52.588;13.370;2023-09-19T06:20:20;17.90;99.90
9772;DHT22;4925;52.588;13.370;2023-09-19T06:22:49;18.00;99.90
9772;DHT22;4925;52.588;13.370;2023-09-19T06:25:16;18.10;99.90
9772;DHT22;4925;52.588;13.370;2023-09-19T06:27:49;18.20;99.90
9772;DHT22;4925;52.588;13.370;2023-09-19T06:30:18;18.20;99.90
9772;DHT22;4925;52.588;13.370;2023-09-19T06:32:44;18.20;99.90
9772;DHT22;4925;52.588;13.370;2023-09-19T06:35:14;18.30;99.90
9772;DHT22;4925;52.588;13.370;2023-09-19T06:37:40;18.30;99.90
9772;DHT22;4925;52.588;13.370;2023-09-19T06:40:14;18.30;99.90
9772;DHT22;4925;52.588;13.370;2023-09-19T06:42:45;18.40;99.90
9772;DHT22;4925;52.588;13.370;2023-09-19T06:45:13;18.50;99.90
9772;DHT22;4925;52.588;13.370;2023-09-19T06:47:52;18.50;99.90
9772;DHT22;4925;52.588;13.370;2023-09-19T06:50:19;18.70;99.90
9772;DHT22;4925;52.588;13.370;2023-09-19T06:52:47;18.80;99.90
9772;DHT22;4925;52.588;13.370;2023-09-19T06:55:17;18.90;99.90
9772;DHT22;4925;52.588;13.370;2023-09-19T06:57:45;19.00;99.90
9772;DHT22;4925;52.588;13.370;2023-09-19T07:00:12;19.00;99.90
9772;DHT22;4925;52.588;13.370;2023-09-19T07:02:42;19.10;99.90
9772;DHT22;4925;52.588;13.370;2023-09-19T07:05:08;19.20;99.90
9772;DHT22;4925;52.588;13.370;2023-09-19T07:07:33;19.30;99.90
9772;DHT22;4925;52.588;13.370;2023-09-19T07:10:03;19.40;99.90
9772;DHT22;4925;52.588;13.370;2023-09-19T07:12:31;19.50;99.90
9772;DHT22;4925;52.588;13.370;2023-09-19T07:14:58;19.40;99.90
9772;DHT22;4925;52.588;13.370;2023-09-19T07:17:23;19.50;99.90
9772;DHT22;4925;52.588;13.370;2023-09-19T07:19:50;19.40;99.90
9772;DHT22;4925;52.588;13.370;2023-09-19T07:22:17;19.40;99.90
9772;DHT22;4925;52.588;13.370;2023-09-19T07:24:43;19.20;99.90
9772;DHT22;4925;52.588;13.370;2023-09-19T07:27:09;19.20;99.90
9772;DHT22;4925;52.588;13.370;2023-09-19T07:29:34;19.20;99.90
9772;DHT22;4925;52.588;13.370;2023-09-19T07:32:00;19.20;99.90
9772;DHT22;4925;52.588;13.370;2023-09-19T07:34:26;19.20;99.90
9772;DHT22;4925;52.588;13.370;2023-09-19T07:36:52;19.20;99.90
9772;DHT22;4925;52.588;13.370;2023-09-19T07:39:17;19.30;99.90
9772;DHT22;4925;52.588;13.370;2023-09-19T07:41:43;19.30;99.90
9772;DHT22;4925;52.588;13.370;2023-09-19T07:44:09;19.40;99.90
9772;DHT22;4925;52.588;13.370;2023-09-19T07:46:37;19.30;99.90
9772;DHT22;4925;52.588;13.370;2023-09-19T07:49:03;19.20;99.90
9772;DHT22;4925;52.588;13.370;2023-09-19T07:51:30;19.10;99.90
9772;DHT22;4925;52.588;13.370;2023-09-19T07:53:56;19.10;99.90
9772;DHT22;4925;52.588;13.370;2023-09-19T07:56:23;19.20;99.90
9772;DHT22;4925;52.588;13.370;2023-09-19T07:58:48;19.30;99.90
9772;DHT22;4925;52.588;13.370;2023-09-19T08:01:14;19.20;99.90
9772;DHT22;4925;52.588;13.370;2023-09-19T08:03:41;19.20;99.90
9772;DHT22;4925;52.588;13.370;2023-09-19T08:06:08;19.30;99.90
9772;DHT22;4925;52.588;13.370;2023-09-19T08:08:34;19.40;99.90
9772;DHT22;4925;52.588;13.370;2023-09-19T08:11:03;19.30;99.90
9772;DHT22;4925;52.588;13.370;2023-09-19T08:13:36;19.30;99.90
9772;DHT22;4925;52.588;13.370;2023-09-19T08:16:03;19.10;99.90
9772;DHT22;4925;52.588;13.370;2023-09-19T08:18:29;19.00;99.90
9772;DHT22;4925;52.588;13.370;2023-09-19T08:20:55;19.00;99.90
9772;DHT22;4925;52.588;13.370;2023-09-19T08:23:24;19.00;99.90
9772;DHT22;4925;52.588;13.370;2023-09-19T08:25:50;18.90;99.90
9772;DHT22;4925;52.588;13.370;2023-09-19T08:28:15;18.90;99.90
9772;DHT22;4925;52.588;13.370;2023-09-19T08:30:45;18.90;99.90
9772;DHT22;4925;52.588;13.370;2023-09-19T08:33:11;19.00;99.90
9772;DHT22;4925;52.588;13.370;2023-09-19T08:35:37;19.00;99.90
9772;DHT22;4925;52.588;13.370;2023-09-19T08:38:05;19.00;99.90
9772;DHT22;4925;52.588;13.370;2023-09-19T08:40:32;19.10;99.90
9772;DHT22;4925;52.588;13.370;2023-09-19T08:43:01;19.00;99.90
9772;DHT22;4925;52.588;13.370;2023-09-19T08:45:27;19.00;99.90
9772;DHT22;4925;52.588;13.370;2023-09-19T08:51:03;19.00;99.90
9772;DHT22;4925;52.588;13.370;2023-09-19T08:53:52;19.00;99.90
9772;DHT22;4925;52.588;13.370;2023-09-19T08:56:22;18.90;99.90
9772;DHT22;4925;52.588;13.370;2023-09-19T08:59:06;19.00;99.90
9772;DHT22;4925;52.588;13.370;2023-09-19T09:01:38;19.00;99.90
9772;DHT22;4925;52.588;13.370;2023-09-19T09:04:11;19.00;99.90
9772;DHT22;4925;52.588;13.370;2023-09-19T09:06:38;18.80;99.90
9772;DHT22;4925;52.588;13.370;2023-09-19T09:09:05;18.80;99.90
9772;DHT22;4925;52.588;13.370;2023-09-19T09:11:34;18.80;99.90
9772;DHT22;4925;52.588;13.370;2023-09-19T09:14:02;18.80;99.90
9772;DHT22;4925;52.588;13.370;2023-09-19T09:16:29;18.80;99.90
9772;DHT22;4925;52.588;13.370;2023-09-19T09:18:55;18.90;99.90
9772;DHT22;4925;52.588;13.370;2023-09-19T09:21:22;19.00;99.90
9772;DHT22;4925;52.588;13.370;2023-09-19T09:23:54;19.00;99.90
9772;DHT22;4925;52.588;13.370;2023-09-19T09:26:51;19.10;99.90
9772;DHT22;4925;52.588;13.370;2023-09-19T09:32:23;19.00;99.90
9772;DHT22;4925;52.588;13.370;2023-09-19T09:34:55;19.10;99.90
9772;DHT22;4925;52.588;13.370;2023-09-19T09:37:21;19.20;99.90
9772;DHT22;4925;52.588;13.370;2023-09-19T09:40:06;19.30;99.90
9772;DHT22;4925;52.588;13.370;2023-09-19T09:42:45;19.50;99.90
9772;DHT22;4925;52.588;13.370;2023-09-19T09:45:22;19.50;99.90
9772;DHT22;4925;52.588;13.370;2023-09-19T09:48:00;19.60;99.90
9772;DHT22;4925;52.588;13.370;2023-09-19T09:50:34;19.70;99.90
9772;DHT22;4925;52.588;13.370;2023-09-19T09:53:03;19.60;99.90
9772;DHT22;4925;52.588;13.370;2023-09-19T09:58:25;19.60;99.90
9772;DHT22;4925;52.588;13.370;2023-09-19T10:00:59;19.40;99.90
9772;DHT22;4925;52.588;13.370;2023-09-19T10:03:39;19.30;99.90
9772;DHT22;4925;52.588;13.370;2023-09-19T10:06:15;19.40;99.90
9772;DHT22;4925;52.588;13.370;2023-09-19T10:09:09;19.60;99.90
9772;DHT22;4925;52.588;13.370;2023-09-19T10:12:06;19.70;99.90
9772;DHT22;4925;52.588;13.370;2023-09-19T10:14:37;19.80;99.90
9772;DHT22;4925;52.588;13.370;2023-09-19T10:17:05;19.70;99.60
9772;DHT22;4925;52.588;13.370;2023-09-19T10:19:45;19.70;98.40
9772;DHT22;4925;52.588;13.370;2023-09-19T10:22:14;19.70;95.60
9772;DHT22;4925;52.588;13.370;2023-09-19T10:24:43;19.90;96.30
9772;DHT22;4925;52.588;13.370;2023-09-19T10:27:11;20.00;95.40
9772;DHT22;4925;52.588;13.370;2023-09-19T10:29:39;20.40;95.70
9772;DHT22;4925;52.588;13.370;2023-09-19T10:32:07;20.50;94.60
9772;DHT22;4925;52.588;13.370;2023-09-19T10:34:35;20.50;95.20
9772;DHT22;4925;52.588;13.370;2023-09-19T10:37:02;20.50;95.60
9772;DHT22;4925;52.588;13.370;2023-09-19T10:39:32;20.60;95.60
9772;DHT22;4925;52.588;13.370;2023-09-19T10:42:02;20.50;95.00
9772;DHT22;4925;52.588;13.370;2023-09-19T10:44:32;20.60;94.90
9772;DHT22;4925;52.588;13.370;2023-09-19T10:46:58;20.80;95.90
9772;DHT22;4925;52.588;13.370;2023-09-19T10:49:25;21.10;94.50
9772;DHT22;4925;52.588;13.370;2023-09-19T10:51:56;21.40;93.50
9772;DHT22;4925;52.588;13.370;2023-09-19T10:54:27;21.60;91.30
9772;DHT22;4925;52.588;13.370;2023-09-19T10:56:55;21.60;89.80
9772;DHT22;4925;52.588;13.370;2023-09-19T10:59:26;21.70;90.30
9772;DHT22;4925;52.588;13.370;2023-09-19T11:02:15;21.60;86.30
9772;DHT22;4925;52.588;13.370;2023-09-19T11:04:42;21.40;86.90
9772;DHT22;4925;52.588;13.370;2023-09-19T11:07:11;21.20;87.10
9772;DHT22;4925;52.588;13.370;2023-09-19T11:09:53;21.00;86.70
9772;DHT22;4925;52.588;13.370;2023-09-19T11:14:54;20.90;89.90
9772;DHT22;4925;52.588;13.370;2023-09-19T11:30:32;21.90;84.50
9772;DHT22;4925;52.588;13.370;2023-09-19T11:36:13;21.70;80.40
9772;DHT22;4925;52.588;13.370;2023-09-19T11:49:27;21.60;81.60
9772;DHT22;4925;52.588;13.370;2023-09-19T11:51:58;21.70;80.00
9772;DHT22;4925;52.588;13.370;2023-09-19T11:54:28;21.70;80.00
9772;DHT22;4925;52.588;13.370;2023-09-19T11:56:59;21.50;80.10
9772;DHT22;4925;52.588;13.370;2023-09-19T11:59:26;21.60;80.00
9772;DHT22;4925;52.588;13.370;2023-09-19T12:02:01;21.60;78.40
9772;DHT22;4925;52.588;13.370;2023-09-19T12:04:39;21.70;78.30
9772;DHT22;4925;52.588;13.370;2023-09-19T12:07:07;21.50;77.90
9772;DHT22;4925;52.588;13.370;2023-09-19T12:10:04;21.40;78.40
9772;DHT22;4925;52.588;13.370;2023-09-19T12:12:31;21.20;78.10
9772;DHT22;4925;52.588;13.370;2023-09-19T12:14:58;21.30;79.80
9772;DHT22;4925;52.588;13.370;2023-09-19T12:17:41;21.40;79.70
9772;DHT22;4925;52.588;13.370;2023-09-19T12:20:08;21.40;79.30
9772;DHT22;4925;52.588;13.370;2023-09-19T12:22:43;21.30;80.00
9772;DHT22;4925;52.588;13.370;2023-09-19T12:25:09;21.20;80.70
9772;DHT22;4925;52.588;13.370;2023-09-19T12:30:10;21.30;78.20
9772;DHT22;4925;52.588;13.370;2023-09-19T12:32:39;21.30;78.20
9772;DHT22;4925;52.588;13.370;2023-09-19T12:35:06;21.30;77.70
9772;DHT22;4925;52.588;13.370;2023-09-19T12:37:43;21.20;77.60
9772;DHT22;4925;52.588;13.370;2023-09-19T12:40:11;21.10;77.40
9772;DHT22;4925;52.588;13.370;2023-09-19T12:42:44;21.20;77.90
9772;DHT22;4925;52.588;13.370;2023-09-19T12:45:11;21.30;78.60
9772;DHT22;4925;52.588;13.370;2023-09-19T12:47:40;21.50;76.80
9772;DHT22;4925;52.588;13.370;2023-09-19T12:52:46;21.90;77.30
9772;DHT22;4925;52.588;13.370;2023-09-19T12:58:13;21.80;76.00
9772;DHT22;4925;52.588;13.370;2023-09-19T13:00:44;21.70;76.00
9772;DHT22;4925;52.588;13.370;2023-09-19T13:03:28;21.90;77.50
9772;DHT22;4925;52.588;13.370;2023-09-19T13:06:03;21.90;76.70
9772;DHT22;4925;52.588;13.370;2023-09-19T13:08:37;21.90;74.70
9772;DHT22;4925;52.588;13.370;2023-09-19T13:11:17;21.60;74.50
9772;DHT22;4925;52.588;13.370;2023-09-19T13:13:50;21.50;75.20
9772;DHT22;4925;52.588;13.370;2023-09-19T13:16:21;21.20;76.10
9772;DHT22;4925;52.588;13.370;2023-09-19T13:18:53;21.30;77.40
9772;DHT22;4925;52.588;13.370;2023-09-19T13:21:32;21.30;78.60
9772;DHT22;4925;52.588;13.370;2023-09-19T13:24:22;21.10;76.60
9772;DHT22;4925;52.588;13.370;2023-09-19T13:26:51;21.10;78.00
9772;DHT22;4925;52.588;13.370;2023-09-19T13:29:16;21.00;79.30
9772;DHT22;4925;52.588;13.370;2023-09-19T13:31:50;20.90;79.70
9772;DHT22;4925;52.588;13.370;2023-09-19T13:34:30;21.10;81.50
9772;DHT22;4925;52.588;13.370;2023-09-19T13:36:57;21.10;80.50
9772;DHT22;4925;52.588;13.370;2023-09-19T13:39:24;21.10;80.30
9772;DHT22;4925;52.588;13.370;2023-09-19T13:41:50;21.10;81.50
9772;DHT22;4925;52.588;13.370;2023-09-19T13:44:16;21.00;80.80
9772;DHT22;4925;52.588;13.370;2023-09-19T13:46:43;21.10;80.20
9772;DHT22;4925;52.588;13.370;2023-09-19T13:49:11;21.10;79.40
9772;DHT22;4925;52.588;13.370;2023-09-19T13:51:37;21.00;79.20
9772;DHT22;4925;52.588;13.370;2023-09-19T13:54:03;21.00;79.50
9772;DHT22;4925;52.588;13.370;2023-09-19T13:56:28;20.90;78.90
9772;DHT22;4925;52.588;13.370;2023-09-19T13:58:55;20.90;79.40
9772;DHT22;4925;52.588;13.370;2023-09-19T14:01:21;21.00;79.70
9772;DHT22;4925;52.588;13.370;2023-09-19T14:03:47;20.90;79.60
9772;DHT22;4925;52.588;13.370;2023-09-19T14:06:15;20.90;80.60
9772;DHT22;4925;52.588;13.370;2023-09-19T14:08:41;21.10;81.50
9772;DHT22;4925;52.588;13.370;2023-09-19T14:11:08;21.30;81.00
9772;DHT22;4925;52.588;13.370;2023-09-19T14:13:34;21.20;79.60
9772;DHT22;4925;52.588;13.370;2023-09-19T14:16:05;21.10;79.20
9772;DHT22;4925;52.588;13.370;2023-09-19T14:18:32;21.00;79.10
9772;DHT22;4925;52.588;13.370;2023-09-19T14:20:58;21.10;79.90
9772;DHT22;4925;52.588;13.370;2023-09-19T14:23:23;21.20;80.30
9772;DHT22;4925;52.588;13.370;2023-09-19T14:25:52;21.30;80.80
9772;DHT22;4925;52.588;13.370;2023-09-19T14:28:19;21.50;80.70
9772;DHT22;4925;52.588;13.370;2023-09-19T14:30:45;21.50;80.00
9772;DHT22;4925;52.588;13.370;2023-09-19T14:33:11;21.60;80.30
9772;DHT22;4925;52.588;13.370;2023-09-19T14:35:37;21.50;81.10
9772;DHT22;4925;52.588;13.370;2023-09-19T14:38:04;21.40;79.50
9772;DHT22;4925;52.588;13.370;2023-09-19T14:40:29;21.40;81.00
9772;DHT22;4925;52.588;13.370;2023-09-19T14:42:56;21.40;80.10
9772;DHT22;4925;52.588;13.370;2023-09-19T14:45:22;21.40;79.70
9772;DHT22;4925;52.588;13.370;2023-09-19T14:47:50;21.30;79.40
9772;DHT22;4925;52.588;13.370;2023-09-19T14:50:18;21.20;80.70
9772;DHT22;4925;52.588;13.370;2023-09-19T14:52:43;21.10;81.20
9772;DHT22;4925;52.588;13.370;2023-09-19T14:55:09;21.30;81.90
9772;DHT22;4925;52.588;13.370;2023-09-19T14:57:41;21.20;82.10
9772;DHT22;4925;52.588;13.370;2023-09-19T15:00:11;21.40;82.50
9772;DHT22;4925;52.588;13.370;2023-09-19T15:02:38;21.40;80.60
9772;DHT22;4925;52.588;13.370;2023-09-19T15:05:06;21.30;82.20
9772;DHT22;4925;52.588;13.370;2023-09-19T15:07:35;21.30;82.60
9772;DHT22;4925;52.588;13.370;2023-09-19T15:10:03;21.30;82.40
9772;DHT22;4925;52.588;13.370;2023-09-19T15:12:32;21.30;83.30
9772;DHT22;4925;52.588;13.370;2023-09-19T15:14:58;21.30;85.40
9772;DHT22;4925;52.588;13.370;2023-09-19T15:17:24;21.20;82.90
9772;DHT22;4925;52.588;13.370;2023-09-19T15:19:50;21.10;82.70
9772;DHT22;4925;52.588;13.370;2023-09-19T15:22:16;21.10;83.50
9772;DHT22;4925;52.588;13.370;2023-09-19T15:24:42;21.20;84.50
9772;DHT22;4925;52.588;13.370;2023-09-19T15:27:08;21.10;84.00
9772;DHT22;4925;52.588;13.370;2023-09-19T15:29:34;21.10;83.90
9772;DHT22;4925;52.588;13.370;2023-09-19T15:31:59;21.10;83.70
9772;DHT22;4925;52.588;13.370;2023-09-19T15:34:28;21.20;83.90
9772;DHT22;4925;52.588;13.370;2023-09-19T15:36:54;21.20;84.20
9772;DHT22;4925;52.588;13.370;2023-09-19T15:39:20;21.20;84.70
9772;DHT22;4925;52.588;13.370;2023-09-19T15:41:48;21.10;82.00
9772;DHT22;4925;52.588;13.370;2023-09-19T15:44:18;21.00;81.40
9772;DHT22;4925;52.588;13.370;2023-09-19T15:46:44;21.00;82.00
9772;DHT22;4925;52.588;13.370;2023-09-19T15:49:10;21.00;82.20
9772;DHT22;4925;52.588;13.370;2023-09-19T15:51:36;21.00;83.40
9772;DHT22;4925;52.588;13.370;2023-09-19T15:54:11;21.10;82.90
9772;DHT22;4925;52.588;13.370;2023-09-19T15:56:40;21.10;83.00
9772;DHT22;4925;52.588;13.370;2023-09-19T15:59:09;21.10;83.20
9772;DHT22;4925;52.588;13.370;2023-09-19T16:01:37;21.10;82.80
9772;DHT22;4925;52.588;13.370;2023-09-19T16:04:03;21.00;82.60
9772;DHT22;4925;52.588;13.370;2023-09-19T16:06:30;21.00;83.20
9772;DHT22;4925;52.588;13.370;2023-09-19T16:08:58;20.90;83.60
9772;DHT22;4925;52.588;13.370;2023-09-19T16:11:26;21.00;83.70
9772;DHT22;4925;52.588;13.370;2023-09-19T16:13:54;20.90;82.00
9772;DHT22;4925;52.588;13.370;2023-09-19T16:16:25;20.90;81.50
9772;DHT22;4925;52.588;13.370;2023-09-19T16:18:55;20.90;81.70
9772;DHT22;4925;52.588;13.370;2023-09-19T16:21:24;20.90;82.70
9772;DHT22;4925;52.588;13.370;2023-09-19T16:23:52;20.80;81.60
9772;DHT22;4925;52.588;13.370;2023-09-19T16:26:20;20.80;82.40
9772;DHT22;4925;52.588;13.370;2023-09-19T16:28:50;20.80;83.40
9772;DHT22;4925;52.588;13.370;2023-09-19T16:31:16;20.90;83.40
9772;DHT22;4925;52.588;13.370;2023-09-19T16:33:44;20.70;82.40
9772;DHT22;4925;52.588;13.370;2023-09-19T16:36:15;20.70;82.40
9772;DHT22;4925;52.588;13.370;2023-09-19T16:38:43;20.60;82.90
9772;DHT22;4925;52.588;13.370;2023-09-19T16:41:09;20.60;83.60
9772;DHT22;4925;52.588;13.370;2023-09-19T16:43:36;20.70;83.90
9772;DHT22;4925;52.588;13.370;2023-09-19T16:46:04;20.70;84.30
9772;DHT22;4925;52.588;13.370;2023-09-19T16:48:33;20.60;84.40
9772;DHT22;4925;52.588;13.370;2023-09-19T16:51:01;20.50;84.90
9772;DHT22;4925;52.588;13.370;2023-09-19T16:53:32;20.50;85.40
9772;DHT22;4925;52.588;13.370;2023-09-19T16:56:02;20.60;84.90